sensor_id;sensor_type;location;lat;lon;timestamp;P1;durP1;ratioP1;P2;durP2;ratioP2
7487;SDS011;3785;52.260;4.728;2022-11-04T00:03:02;0.95;;;0.20;;
7487;SDS011;3785;52.260;4.728;2022-11-04T00:06:23;1.95;;;0.30;;
7487;SDS011;3785;52.260;4.728;2022-11-04T00:09:43;1.65;;;0.35;;
7487;SDS011;3785;52.260;4.728;2022-11-04T00:13:04;0.50;;;0.25;;
7487;SDS011;3785;52.260;4.728;2022-11-04T00:16:25;0.50;;;0.32;;
7487;SDS011;3785;52.260;4.728;2022-11-04T00:20:04;3.63;;;0.50;;
7487;SDS011;3785;52.260;4.728;2022-11-04T00:23:44;0.90;;;0.30;;
7487;SDS011;3785;52.260;4.728;2022-11-04T00:27:23;1.70;;;0.30;;
7487;SDS011;3785;52.260;4.728;2022-11-04T00:31:03;0.40;;;0.20;;
7487;SDS011;3785;52.260;4.728;2022-11-04T00:34:43;0.80;;;0.40;;
7487;SDS011;3785;52.260;4.728;2022-11-04T00:38:04;0.43;;;0.30;;
7487;SDS011;3785;52.260;4.728;2022-11-04T00:41:24;0.70;;;0.50;;
7487;SDS011;3785;52.260;4.728;2022-11-04T00:44:45;0.57;;;0.45;;
7487;SDS011;3785;52.260;4.728;2022-11-04T00:48:06;1.00;;;0.60;;
7487;SDS011;3785;52.260;4.728;2022-11-04T00:51:26;1.13;;;0.50;;
7487;SDS011;3785;52.260;4.728;2022-11-04T00:54:47;2.13;;;0.75;;
7487;SDS011;3785;52.260;4.728;2022-11-04T00:58:08;1.00;;;0.40;;
7487;SDS011;3785;52.260;4.728;2022-11-04T01:01:28;2.20;;;0.52;;
7487;SDS011;3785;52.260;4.728;2022-11-04T01:04:49;1.42;;;0.60;;
7487;SDS011;3785;52.260;4.728;2022-11-04T01:08:09;0.82;;;0.52;;
7487;SDS011;3785;52.260;4.728;2022-11-04T01:11:30;3.42;;;0.50;;
7487;SDS011;3785;52.260;4.728;2022-11-04T01:14:50;1.85;;;0.60;;
7487;SDS011;3785;52.260;4.728;2022-11-04T01:18:11;0.63;;;0.30;;
7487;SDS011;3785;52.260;4.728;2022-11-04T01:21:32;2.78;;;0.50;;
7487;SDS011;3785;52.260;4.728;2022-11-04T01:24:52;1.92;;;0.20;;
7487;SDS011;3785;52.260;4.728;2022-11-04T01:28:13;0.70;;;0.10;;
7487;SDS011;3785;52.260;4.728;2022-11-04T01:31:34;0.20;;;0.20;;
7487;SDS011;3785;52.260;4.728;2022-11-04T01:34:54;0.20;;;0.13;;
7487;SDS011;3785;52.260;4.728;2022-11-04T01:38:15;0.82;;;0.25;;
7487;SDS011;3785;52.260;4.728;2022-11-04T01:41:36;0.13;;;0.03;;
7487;SDS011;3785;52.260;4.728;2022-11-04T01:44:58;0.10;;;0.10;;
7487;SDS011;3785;52.260;4.728;2022-11-04T01:48:21;0.85;;;0.20;;
7487;SDS011;3785;52.260;4.728;2022-11-04T01:51:48;1.02;;;0.20;;
7487;SDS011;3785;52.260;4.728;2022-11-04T01:55:25;0.47;;;0.30;;
7487;SDS011;3785;52.260;4.728;2022-11-04T01:58:49;1.35;;;0.30;;
7487;SDS011;3785;52.260;4.728;2022-11-04T02:02:12;1.90;;;0.35;;
7487;SDS011;3785;52.260;4.728;2022-11-04T02:05:33;0.45;;;0.38;;
7487;SDS011;3785;52.260;4.728;2022-11-04T02:08:53;0.10;;;0.10;;
7487;SDS011;3785;52.260;4.728;2022-11-04T02:12:14;0.50;;;0.25;;
7487;SDS011;3785;52.260;4.728;2022-11-04T02:19:39;0.30;;;0.30;;
7487;SDS011;3785;52.260;4.728;2022-11-04T02:27:14;1.23;;;0.30;;
7487;SDS011;3785;52.260;4.728;2022-11-04T02:30:49;1.40;;;0.47;;
7487;SDS011;3785;52.260;4.728;2022-11-04T02:34:23;2.38;;;0.30;;
7487;SDS011;3785;52.260;4.728;2022-11-04T02:37:55;1.80;;;0.45;;
7487;SDS011;3785;52.260;4.728;2022-11-04T02:48:59;1.05;;;0.30;;
7487;SDS011;3785;52.260;4.728;2022-11-04T02:52:30;0.50;;;0.28;;
7487;SDS011;3785;52.260;4.728;2022-11-04T02:55:56;0.20;;;0.10;;
7487;SDS011;3785;52.260;4.728;2022-11-04T02:59:51;1.67;;;0.40;;
7487;SDS011;3785;52.260;4.728;2022-11-04T03:03:10;0.77;;;0.30;;
7487;SDS011;3785;52.260;4.728;2022-11-04T03:06:33;0.68;;;0.30;;
7487;SDS011;3785;52.260;4.728;2022-11-04T03:09:57;0.60;;;0.47;;
7487;SDS011;3785;52.260;4.728;2022-11-04T03:13:36;0.68;;;0.35;;
7487;SDS011;3785;52.260;4.728;2022-11-04T03:17:02;3.13;;;0.45;;
7487;SDS011;3785;52.260;4.728;2022-11-04T03:20:26;2.25;;;0.50;;
7487;SDS011;3785;52.260;4.728;2022-11-04T03:23:47;1.65;;;0.40;;
7487;SDS011;3785;52.260;4.728;2022-11-04T03:30:46;0.77;;;0.45;;
7487;SDS011;3785;52.260;4.728;2022-11-04T03:34:08;1.23;;;0.68;;
7487;SDS011;3785;52.260;4.728;2022-11-04T03:37:29;1.23;;;0.82;;
7487;SDS011;3785;52.260;4.728;2022-11-04T03:40:49;1.67;;;0.90;;
7487;SDS011;3785;52.260;4.728;2022-11-04T03:44:10;1.75;;;0.57;;
7487;SDS011;3785;52.260;4.728;2022-11-04T03:47:31;1.08;;;0.40;;
7487;SDS011;3785;52.260;4.728;2022-11-04T03:50:52;1.00;;;0.60;;
7487;SDS011;3785;52.260;4.728;2022-11-04T03:54:13;2.00;;;1.20;;
7487;SDS011;3785;52.260;4.728;2022-11-04T04:01:19;3.90;;;1.40;;
7487;SDS011;3785;52.260;4.728;2022-11-04T04:04:48;2.97;;;1.45;;
7487;SDS011;3785;52.260;4.728;2022-11-04T04:12:02;1.55;;;0.80;;
7487;SDS011;3785;52.260;4.728;2022-11-04T04:15:28;1.65;;;0.80;;
7487;SDS011;3785;52.260;4.728;2022-11-04T04:18:59;1.20;;;0.68;;
7487;SDS011;3785;52.260;4.728;2022-11-04T04:22:23;2.72;;;0.90;;
7487;SDS011;3785;52.260;4.728;2022-11-04T04:25:47;3.30;;;0.98;;
7487;SDS011;3785;52.260;4.728;2022-11-04T04:33:39;1.60;;;0.80;;
7487;SDS011;3785;52.260;4.728;2022-11-04T04:37:01;2.40;;;1.08;;
7487;SDS011;3785;52.260;4.728;2022-11-04T04:40:24;2.03;;;0.98;;
7487;SDS011;3785;52.260;4.728;2022-11-04T04:44:26;2.00;;;1.05;;
7487;SDS011;3785;52.260;4.728;2022-11-04T04:48:05;2.00;;;1.20;;
7487;SDS011;3785;52.260;4.728;2022-11-04T04:51:28;2.00;;;1.00;;
7487;SDS011;3785;52.260;4.728;2022-11-04T04:54:49;2.05;;;1.30;;
7487;SDS011;3785;52.260;4.728;2022-11-04T04:58:10;2.47;;;1.70;;
7487;SDS011;3785;52.260;4.728;2022-11-04T05:01:31;3.65;;;1.50;;
7487;SDS011;3785;52.260;4.728;2022-11-04T05:04:52;2.40;;;1.20;;
7487;SDS011;3785;52.260;4.728;2022-11-04T05:08:12;2.60;;;1.63;;
7487;SDS011;3785;52.260;4.728;2022-11-04T05:11:33;2.13;;;1.42;;
7487;SDS011;3785;52.260;4.728;2022-11-04T05:14:53;4.45;;;1.95;;
7487;SDS011;3785;52.260;4.728;2022-11-04T05:18:14;3.35;;;2.28;;
7487;SDS011;3785;52.260;4.728;2022-11-04T05:21:35;4.60;;;2.58;;
7487;SDS011;3785;52.260;4.728;2022-11-04T05:24:55;4.75;;;2.92;;
7487;SDS011;3785;52.260;4.728;2022-11-04T05:28:16;7.55;;;3.80;;
7487;SDS011;3785;52.260;4.728;2022-11-04T05:31:37;6.82;;;3.65;;
7487;SDS011;3785;52.260;4.728;2022-11-04T05:34:58;6.95;;;4.25;;
7487;SDS011;3785;52.260;4.728;2022-11-04T05:38:18;10.27;;;5.32;;
7487;SDS011;3785;52.260;4.728;2022-11-04T05:41:39;8.50;;;5.07;;
7487;SDS011;3785;52.260;4.728;2022-11-04T05:45:00;8.07;;;4.80;;
7487;SDS011;3785;52.260;4.728;2022-11-04T05:48:20;7.85;;;5.13;;
7487;SDS011;3785;52.260;4.728;2022-11-04T05:51:41;8.30;;;4.88;;
7487;SDS011;3785;52.260;4.728;2022-11-04T05:55:02;9.68;;;5.55;;
7487;SDS011;3785;52.260;4.728;2022-11-04T05:58:23;10.07;;;5.63;;
7487;SDS011;3785;52.260;4.728;2022-11-04T06:01:44;8.85;;;5.25;;
7487;SDS011;3785;52.260;4.728;2022-11-04T06:05:05;9.02;;;5.07;;
7487;SDS011;3785;52.260;4.728;2022-11-04T06:08:26;12.00;;;5.53;;
7487;SDS011;3785;52.260;4.728;2022-11-04T06:11:46;10.63;;;5.20;;
7487;SDS011;3785;52.260;4.728;2022-11-04T06:15:07;12.05;;;5.70;;
7487;SDS011;3785;52.260;4.728;2022-11-04T06:18:28;11.13;;;5.72;;
7487;SDS011;3785;52.260;4.728;2022-11-04T06:21:49;8.95;;;5.65;;
7487;SDS011;3785;52.260;4.728;2022-11-04T06:25:09;8.07;;;4.97;;
7487;SDS011;3785;52.260;4.728;2022-11-04T06:28:33;10.63;;;5.22;;
7487;SDS011;3785;52.260;4.728;2022-11-04T06:31:54;10.75;;;5.47;;
7487;SDS011;3785;52.260;4.728;2022-11-04T06:35:15;11.30;;;5.68;;
7487;SDS011;3785;52.260;4.728;2022-11-04T06:38:36;11.80;;;6.40;;
7487;SDS011;3785;52.260;4.728;2022-11-04T06:41:57;10.52;;;5.70;;
7487;SDS011;3785;52.260;4.728;2022-11-04T06:45:17;11.95;;;5.82;;
7487;SDS011;3785;52.260;4.728;2022-11-04T06:48:38;8.77;;;5.20;;
7487;SDS011;3785;52.260;4.728;2022-11-04T06:51:58;10.75;;;5.88;;
7487;SDS011;3785;52.260;4.728;2022-11-04T06:55:21;10.15;;;5.63;;
7487;SDS011;3785;52.260;4.728;2022-11-04T06:58:42;8.05;;;5.57;;
7487;SDS011;3785;52.260;4.728;2022-11-04T07:02:03;9.88;;;5.15;;
7487;SDS011;3785;52.260;4.728;2022-11-04T07:05:23;10.55;;;5.55;;
7487;SDS011;3785;52.260;4.728;2022-11-04T07:08:44;11.20;;;5.97;;
7487;SDS011;3785;52.260;4.728;2022-11-04T07:12:05;11.77;;;5.70;;
7487;SDS011;3785;52.260;4.728;2022-11-04T07:15:26;9.30;;;5.70;;
7487;SDS011;3785;52.260;4.728;2022-11-04T07:18:47;10.38;;;5.25;;
7487;SDS011;3785;52.260;4.728;2022-11-04T07:22:08;8.35;;;5.07;;
7487;SDS011;3785;52.260;4.728;2022-11-04T07:25:29;9.95;;;5.57;;
7487;SDS011;3785;52.260;4.728;2022-11-04T07:28:49;10.70;;;5.32;;
7487;SDS011;3785;52.260;4.728;2022-11-04T07:32:10;9.52;;;5.65;;
7487;SDS011;3785;52.260;4.728;2022-11-04T07:35:31;10.38;;;5.90;;
7487;SDS011;3785;52.260;4.728;2022-11-04T07:38:51;8.70;;;5.70;;
7487;SDS011;3785;52.260;4.728;2022-11-04T07:42:12;10.07;;;5.50;;
7487;SDS011;3785;52.260;4.728;2022-11-04T07:45:32;11.27;;;5.68;;
7487;SDS011;3785;52.260;4.728;2022-11-04T07:48:55;11.57;;;6.10;;
7487;SDS011;3785;52.260;4.728;2022-11-04T07:52:17;10.70;;;6.03;;
7487;SDS011;3785;52.260;4.728;2022-11-04T07:55:38;11.25;;;5.50;;
7487;SDS011;3785;52.260;4.728;2022-11-04T07:58:58;12.10;;;5.78;;
7487;SDS011;3785;52.260;4.728;2022-11-04T08:02:19;9.13;;;5.30;;
7487;SDS011;3785;52.260;4.728;2022-11-04T08:05:41;12.43;;;5.78;;
7487;SDS011;3785;52.260;4.728;2022-11-04T08:09:01;9.82;;;5.80;;
7487;SDS011;3785;52.260;4.728;2022-11-04T08:12:22;10.80;;;6.53;;
7487;SDS011;3785;52.260;4.728;2022-11-04T08:15:43;10.13;;;5.50;;
7487;SDS011;3785;52.260;4.728;2022-11-04T08:19:03;11.30;;;5.75;;
7487;SDS011;3785;52.260;4.728;2022-11-04T08:22:24;10.93;;;5.05;;
7487;SDS011;3785;52.260;4.728;2022-11-04T08:25:45;9.80;;;5.13;;
7487;SDS011;3785;52.260;4.728;2022-11-04T08:29:06;9.02;;;5.53;;
7487;SDS011;3785;52.260;4.728;2022-11-04T08:32:27;8.80;;;5.57;;
7487;SDS011;3785;52.260;4.728;2022-11-04T08:35:48;11.18;;;5.38;;
7487;SDS011;3785;52.260;4.728;2022-11-04T08:39:10;9.48;;;4.88;;
7487;SDS011;3785;52.260;4.728;2022-11-04T08:42:31;8.45;;;4.90;;
7487;SDS011;3785;52.260;4.728;2022-11-04T08:45:52;9.32;;;5.45;;
7487;SDS011;3785;52.260;4.728;2022-11-04T08:49:12;8.63;;;4.88;;
7487;SDS011;3785;52.260;4.728;2022-11-04T08:52:33;9.45;;;4.88;;
7487;SDS011;3785;52.260;4.728;2022-11-04T08:55:53;11.43;;;5.68;;
7487;SDS011;3785;52.260;4.728;2022-11-04T08:59:14;11.52;;;5.55;;
7487;SDS011;3785;52.260;4.728;2022-11-04T09:02:36;10.10;;;5.05;;
7487;SDS011;3785;52.260;4.728;2022-11-04T09:05:56;10.95;;;5.03;;
7487;SDS011;3785;52.260;4.728;2022-11-04T09:09:17;10.18;;;5.35;;
7487;SDS011;3785;52.260;4.728;2022-11-04T09:12:38;7.70;;;4.53;;
7487;SDS011;3785;52.260;4.728;2022-11-04T09:15:58;8.40;;;5.43;;
7487;SDS011;3785;52.260;4.728;2022-11-04T09:19:19;7.25;;;4.95;;
7487;SDS011;3785;52.260;4.728;2022-11-04T09:22:40;10.15;;;5.05;;
7487;SDS011;3785;52.260;4.728;2022-11-04T09:26:05;7.07;;;4.40;;
7487;SDS011;3785;52.260;4.728;2022-11-04T09:29:27;7.35;;;3.33;;
7487;SDS011;3785;52.260;4.728;2022-11-04T09:32:52;5.47;;;3.78;;
7487;SDS011;3785;52.260;4.728;2022-11-04T09:36:13;5.82;;;2.88;;
7487;SDS011;3785;52.260;4.728;2022-11-04T09:39:33;3.78;;;2.45;;
7487;SDS011;3785;52.260;4.728;2022-11-04T09:46:23;3.90;;;2.40;;
7487;SDS011;3785;52.260;4.728;2022-11-04T09:49:45;4.85;;;2.22;;
7487;SDS011;3785;52.260;4.728;2022-11-04T09:53:16;4.32;;;2.00;;
7487;SDS011;3785;52.260;4.728;2022-11-04T09:56:41;3.47;;;1.77;;
7487;SDS011;3785;52.260;4.728;2022-11-04T10:00:04;4.40;;;2.15;;
7487;SDS011;3785;52.260;4.728;2022-11-04T10:10:34;3.90;;;1.75;;
7487;SDS011;3785;52.260;4.728;2022-11-04T10:14:17;3.58;;;2.10;;
7487;SDS011;3785;52.260;4.728;2022-11-04T10:17:53;4.18;;;1.98;;
7487;SDS011;3785;52.260;4.728;2022-11-04T10:21:52;4.50;;;2.20;;
7487;SDS011;3785;52.260;4.728;2022-11-04T10:25:46;5.85;;;2.53;;
7487;SDS011;3785;52.260;4.728;2022-11-04T10:29:11;3.50;;;2.42;;
7487;SDS011;3785;52.260;4.728;2022-11-04T10:36:08;1.38;;;0.40;;
7487;SDS011;3785;52.260;4.728;2022-11-04T10:39:30;0.40;;;0.30;;
7487;SDS011;3785;52.260;4.728;2022-11-04T10:42:54;0.38;;;0.20;;
7487;SDS011;3785;52.260;4.728;2022-11-04T10:46:26;0.20;;;0.15;;
7487;SDS011;3785;52.260;4.728;2022-11-04T10:53:32;1.80;;;0.50;;
7487;SDS011;3785;52.260;4.728;2022-11-04T10:56:54;1.20;;;0.57;;
7487;SDS011;3785;52.260;4.728;2022-11-04T11:00:31;0.65;;;0.30;;
7487;SDS011;3785;52.260;4.728;2022-11-04T11:03:52;1.05;;;0.40;;
7487;SDS011;3785;52.260;4.728;2022-11-04T11:07:14;0.30;;;0.30;;
7487;SDS011;3785;52.260;4.728;2022-11-04T11:10:48;0.90;;;0.32;;
7487;SDS011;3785;52.260;4.728;2022-11-04T11:14:29;0.75;;;0.40;;
7487;SDS011;3785;52.260;4.728;2022-11-04T11:17:59;0.98;;;0.60;;
7487;SDS011;3785;52.260;4.728;2022-11-04T11:21:29;0.63;;;0.32;;
7487;SDS011;3785;52.260;4.728;2022-11-04T11:25:19;0.55;;;0.32;;
7487;SDS011;3785;52.260;4.728;2022-11-04T11:28:40;0.40;;;0.25;;
7487;SDS011;3785;52.260;4.728;2022-11-04T11:32:20;1.60;;;0.45;;
7487;SDS011;3785;52.260;4.728;2022-11-04T11:35:52;1.27;;;0.73;;
7487;SDS011;3785;52.260;4.728;2022-11-04T11:39:15;2.25;;;1.33;;
7487;SDS011;3785;52.260;4.728;2022-11-04T11:42:41;1.23;;;0.93;;
7487;SDS011;3785;52.260;4.728;2022-11-04T11:46:01;1.20;;;0.60;;
7487;SDS011;3785;52.260;4.728;2022-11-04T11:49:27;1.55;;;0.47;;
7487;SDS011;3785;52.260;4.728;2022-11-04T11:52:50;1.23;;;0.70;;
7487;SDS011;3785;52.260;4.728;2022-11-04T11:56:17;1.25;;;0.60;;
7487;SDS011;3785;52.260;4.728;2022-11-04T11:59:52;1.20;;;0.70;;
7487;SDS011;3785;52.260;4.728;2022-11-04T12:03:21;0.93;;;0.50;;
7487;SDS011;3785;52.260;4.728;2022-11-04T12:10:31;0.68;;;0.50;;
7487;SDS011;3785;52.260;4.728;2022-11-04T12:13:58;0.10;;;0.10;;
7487;SDS011;3785;52.260;4.728;2022-11-04T12:17:30;2.40;;;0.40;;
7487;SDS011;3785;52.260;4.728;2022-11-04T12:21:00;0.98;;;0.40;;
7487;SDS011;3785;52.260;4.728;2022-11-04T12:28:23;0.93;;;0.43;;
7487;SDS011;3785;52.260;4.728;2022-11-04T12:32:02;0.63;;;0.40;;
7487;SDS011;3785;52.260;4.728;2022-11-04T12:39:30;0.28;;;0.22;;
7487;SDS011;3785;52.260;4.728;2022-11-04T13:09:01;1.30;;;0.30;;
7487;SDS011;3785;52.260;4.728;2022-11-04T13:12:26;0.77;;;0.40;;
7487;SDS011;3785;52.260;4.728;2022-11-04T13:15:51;2.58;;;0.73;;
7487;SDS011;3785;52.260;4.728;2022-11-04T13:19:19;2.38;;;0.82;;
7487;SDS011;3785;52.260;4.728;2022-11-04T13:22:47;2.95;;;0.55;;
7487;SDS011;3785;52.260;4.728;2022-11-04T13:26:10;2.55;;;0.55;;
7487;SDS011;3785;52.260;4.728;2022-11-04T13:29:34;1.10;;;0.60;;
7487;SDS011;3785;52.260;4.728;2022-11-04T13:37:03;0.63;;;0.50;;
7487;SDS011;3785;52.260;4.728;2022-11-04T13:40:39;1.23;;;0.60;;
7487;SDS011;3785;52.260;4.728;2022-11-04T13:47:44;2.13;;;0.60;;
7487;SDS011;3785;52.260;4.728;2022-11-04T13:51:13;1.92;;;0.68;;
7487;SDS011;3785;52.260;4.728;2022-11-04T13:55:15;1.50;;;0.90;;
7487;SDS011;3785;52.260;4.728;2022-11-04T13:58:24;1.98;;;0.88;;
7487;SDS011;3785;52.260;4.728;2022-11-04T14:01:45;1.10;;;0.60;;
7487;SDS011;3785;52.260;4.728;2022-11-04T14:12:46;2.90;;;0.70;;
7487;SDS011;3785;52.260;4.728;2022-11-04T14:16:11;4.65;;;0.63;;
7487;SDS011;3785;52.260;4.728;2022-11-04T14:23:24;3.95;;;0.68;;
7487;SDS011;3785;52.260;4.728;2022-11-04T14:26:46;3.28;;;0.80;;
7487;SDS011;3785;52.260;4.728;2022-11-04T14:30:25;1.50;;;0.80;;
7487;SDS011;3785;52.260;4.728;2022-11-04T14:33:53;3.13;;;0.88;;
7487;SDS011;3785;52.260;4.728;2022-11-04T14:37:19;3.13;;;0.50;;
7487;SDS011;3785;52.260;4.728;2022-11-04T14:40:48;2.30;;;1.13;;
7487;SDS011;3785;52.260;4.728;2022-11-04T14:47:31;2.58;;;0.95;;
7487;SDS011;3785;52.260;4.728;2022-11-04T14:50:52;3.53;;;1.10;;
7487;SDS011;3785;52.260;4.728;2022-11-04T14:54:18;2.53;;;1.20;;
7487;SDS011;3785;52.260;4.728;2022-11-04T14:57:45;2.42;;;1.10;;
7487;SDS011;3785;52.260;4.728;2022-11-04T15:01:07;2.58;;;1.10;;
7487;SDS011;3785;52.260;4.728;2022-11-04T15:04:34;1.50;;;0.77;;
7487;SDS011;3785;52.260;4.728;2022-11-04T15:07:54;1.92;;;0.80;;
7487;SDS011;3785;52.260;4.728;2022-11-04T15:11:16;2.72;;;1.13;;
7487;SDS011;3785;52.260;4.728;2022-11-04T15:14:58;1.83;;;0.90;;
7487;SDS011;3785;52.260;4.728;2022-11-04T15:18:20;1.83;;;0.93;;
7487;SDS011;3785;52.260;4.728;2022-11-04T15:21:41;2.42;;;1.00;;
7487;SDS011;3785;52.260;4.728;2022-11-04T15:25:08;1.65;;;0.65;;
7487;SDS011;3785;52.260;4.728;2022-11-04T15:28:34;1.20;;;0.70;;
7487;SDS011;3785;52.260;4.728;2022-11-04T15:32:01;3.38;;;1.08;;
7487;SDS011;3785;52.260;4.728;2022-11-04T15:35:23;2.42;;;0.60;;
7487;SDS011;3785;52.260;4.728;2022-11-04T15:38:49;3.22;;;0.82;;
7487;SDS011;3785;52.260;4.728;2022-11-04T15:42:22;1.52;;;0.77;;
7487;SDS011;3785;52.260;4.728;2022-11-04T15:46:02;1.70;;;0.73;;
7487;SDS011;3785;52.260;4.728;2022-11-04T15:49:24;2.38;;;0.70;;
7487;SDS011;3785;52.260;4.728;2022-11-04T15:52:48;2.70;;;0.93;;
7487;SDS011;3785;52.260;4.728;2022-11-04T15:56:17;4.03;;;0.90;;
7487;SDS011;3785;52.260;4.728;2022-11-04T15:59:44;1.30;;;0.90;;
7487;SDS011;3785;52.260;4.728;2022-11-04T16:03:13;1.80;;;1.05;;
7487;SDS011;3785;52.260;4.728;2022-11-04T16:06:38;2.80;;;1.30;;
7487;SDS011;3785;52.260;4.728;2022-11-04T16:10:00;3.72;;;2.20;;
7487;SDS011;3785;52.260;4.728;2022-11-04T16:13:22;5.45;;;1.67;;
7487;SDS011;3785;52.260;4.728;2022-11-04T16:16:45;1.80;;;1.02;;
7487;SDS011;3785;52.260;4.728;2022-11-04T16:20:15;1.75;;;1.10;;
7487;SDS011;3785;52.260;4.728;2022-11-04T16:23:38;2.22;;;1.30;;
7487;SDS011;3785;52.260;4.728;2022-11-04T16:27:07;2.70;;;0.82;;
7487;SDS011;3785;52.260;4.728;2022-11-04T16:30:32;3.00;;;0.60;;
7487;SDS011;3785;52.260;4.728;2022-11-04T16:33:53;2.50;;;0.70;;
7487;SDS011;3785;52.260;4.728;2022-11-04T16:37:14;1.77;;;0.90;;
7487;SDS011;3785;52.260;4.728;2022-11-04T16:40:34;2.75;;;1.10;;
7487;SDS011;3785;52.260;4.728;2022-11-04T16:43:55;3.25;;;0.60;;
7487;SDS011;3785;52.260;4.728;2022-11-04T16:47:17;2.85;;;0.70;;
7487;SDS011;3785;52.260;4.728;2022-11-04T16:50:38;3.47;;;1.17;;
7487;SDS011;3785;52.260;4.728;2022-11-04T16:53:59;2.75;;;0.88;;
7487;SDS011;3785;52.260;4.728;2022-11-04T16:57:19;3.17;;;1.70;;
7487;SDS011;3785;52.260;4.728;2022-11-04T17:00:40;3.42;;;1.20;;
7487;SDS011;3785;52.260;4.728;2022-11-04T17:04:00;2.40;;;1.00;;
7487;SDS011;3785;52.260;4.728;2022-11-04T17:07:23;2.42;;;0.90;;
7487;SDS011;3785;52.260;4.728;2022-11-04T17:10:44;6.18;;;1.02;;
7487;SDS011;3785;52.260;4.728;2022-11-04T17:14:04;3.45;;;1.13;;
7487;SDS011;3785;52.260;4.728;2022-11-04T17:17:25;4.30;;;1.33;;
7487;SDS011;3785;52.260;4.728;2022-11-04T17:20:47;4.00;;;1.50;;
7487;SDS011;3785;52.260;4.728;2022-11-04T17:24:10;5.30;;;1.45;;
7487;SDS011;3785;52.260;4.728;2022-11-04T17:27:30;2.38;;;1.17;;
7487;SDS011;3785;52.260;4.728;2022-11-04T17:30:51;2.05;;;1.15;;
7487;SDS011;3785;52.260;4.728;2022-11-04T17:34:12;2.58;;;1.17;;
7487;SDS011;3785;52.260;4.728;2022-11-04T17:37:32;1.80;;;1.00;;
7487;SDS011;3785;52.260;4.728;2022-11-04T17:40:53;2.70;;;1.23;;
7487;SDS011;3785;52.260;4.728;2022-11-04T17:44:32;2.97;;;1.10;;
7487;SDS011;3785;52.260;4.728;2022-11-04T17:47:53;1.85;;;1.00;;
7487;SDS011;3785;52.260;4.728;2022-11-04T17:51:13;2.45;;;1.20;;
7487;SDS011;3785;52.260;4.728;2022-11-04T17:54:34;1.88;;;0.95;;
7487;SDS011;3785;52.260;4.728;2022-11-04T17:57:55;2.00;;;0.98;;
7487;SDS011;3785;52.260;4.728;2022-11-04T18:01:16;5.43;;;2.45;;
7487;SDS011;3785;52.260;4.728;2022-11-04T18:04:39;4.82;;;1.23;;
7487;SDS011;3785;52.260;4.728;2022-11-04T18:08:00;4.88;;;1.38;;
7487;SDS011;3785;52.260;4.728;2022-11-04T18:11:21;2.53;;;1.23;;
7487;SDS011;3785;52.260;4.728;2022-11-04T18:15:03;1.10;;;0.68;;
7487;SDS011;3785;52.260;4.728;2022-11-04T18:18:24;1.73;;;0.93;;
7487;SDS011;3785;52.260;4.728;2022-11-04T18:21:45;5.72;;;1.30;;
7487;SDS011;3785;52.260;4.728;2022-11-04T18:25:06;2.33;;;1.27;;
7487;SDS011;3785;52.260;4.728;2022-11-04T18:28:27;3.25;;;2.00;;
7487;SDS011;3785;52.260;4.728;2022-11-04T18:31:48;3.08;;;1.35;;
7487;SDS011;3785;52.260;4.728;2022-11-04T18:35:08;3.38;;;1.25;;
7487;SDS011;3785;52.260;4.728;2022-11-04T18:38:29;3.75;;;1.75;;
7487;SDS011;3785;52.260;4.728;2022-11-04T18:41:50;2.85;;;1.15;;
7487;SDS011;3785;52.260;4.728;2022-11-04T18:45:11;1.92;;;1.30;;
7487;SDS011;3785;52.260;4.728;2022-11-04T18:48:31;2.05;;;0.98;;
7487;SDS011;3785;52.260;4.728;2022-11-04T18:51:52;3.58;;;1.50;;
7487;SDS011;3785;52.260;4.728;2022-11-04T18:55:12;2.33;;;1.13;;
7487;SDS011;3785;52.260;4.728;2022-11-04T18:58:33;1.48;;;0.80;;
7487;SDS011;3785;52.260;4.728;2022-11-04T19:01:55;3.08;;;0.80;;
7487;SDS011;3785;52.260;4.728;2022-11-04T19:05:16;1.40;;;0.82;;
7487;SDS011;3785;52.260;4.728;2022-11-04T19:08:37;3.15;;;1.27;;
7487;SDS011;3785;52.260;4.728;2022-11-04T19:11:58;2.60;;;1.30;;
7487;SDS011;3785;52.260;4.728;2022-11-04T19:15:37;4.18;;;1.80;;
7487;SDS011;3785;52.260;4.728;2022-11-04T19:18:58;5.93;;;2.50;;
7487;SDS011;3785;52.260;4.728;2022-11-04T19:22:20;4.45;;;1.70;;
7487;SDS011;3785;52.260;4.728;2022-11-04T19:25:41;2.63;;;1.38;;
7487;SDS011;3785;52.260;4.728;2022-11-04T19:29:03;4.57;;;1.42;;
7487;SDS011;3785;52.260;4.728;2022-11-04T19:32:24;3.08;;;1.35;;
7487;SDS011;3785;52.260;4.728;2022-11-04T19:35:45;2.85;;;1.25;;
7487;SDS011;3785;52.260;4.728;2022-11-04T19:39:05;6.95;;;2.40;;
7487;SDS011;3785;52.260;4.728;2022-11-04T19:42:26;5.20;;;2.65;;
7487;SDS011;3785;52.260;4.728;2022-11-04T19:46:05;2.20;;;1.40;;
7487;SDS011;3785;52.260;4.728;2022-11-04T19:49:26;1.60;;;0.82;;
7487;SDS011;3785;52.260;4.728;2022-11-04T19:52:50;1.08;;;0.30;;
7487;SDS011;3785;52.260;4.728;2022-11-04T19:56:12;1.52;;;0.43;;
7487;SDS011;3785;52.260;4.728;2022-11-04T19:59:34;0.98;;;0.40;;
7487;SDS011;3785;52.260;4.728;2022-11-04T20:02:55;0.65;;;0.40;;
7487;SDS011;3785;52.260;4.728;2022-11-04T20:06:16;1.65;;;0.93;;
7487;SDS011;3785;52.260;4.728;2022-11-04T20:09:37;1.85;;;0.77;;
7487;SDS011;3785;52.260;4.728;2022-11-04T20:12:58;1.60;;;0.70;;
7487;SDS011;3785;52.260;4.728;2022-11-04T20:16:37;3.58;;;0.70;;
7487;SDS011;3785;52.260;4.728;2022-11-04T20:19:59;1.83;;;0.93;;
7487;SDS011;3785;52.260;4.728;2022-11-04T20:23:20;2.70;;;0.95;;
7487;SDS011;3785;52.260;4.728;2022-11-04T20:26:40;1.92;;;1.23;;
7487;SDS011;3785;52.260;4.728;2022-11-04T20:30:02;4.90;;;1.98;;
7487;SDS011;3785;52.260;4.728;2022-11-04T20:33:23;5.32;;;3.10;;
7487;SDS011;3785;52.260;4.728;2022-11-04T20:36:44;2.45;;;1.70;;
7487;SDS011;3785;52.260;4.728;2022-11-04T20:40:05;2.03;;;0.77;;
7487;SDS011;3785;52.260;4.728;2022-11-04T20:43:26;1.38;;;0.70;;
7487;SDS011;3785;52.260;4.728;2022-11-04T20:46:47;4.70;;;0.82;;
7487;SDS011;3785;52.260;4.728;2022-11-04T20:50:08;3.60;;;0.90;;
7487;SDS011;3785;52.260;4.728;2022-11-04T20:53:29;5.55;;;1.02;;
7487;SDS011;3785;52.260;4.728;2022-11-04T20:56:51;2.25;;;0.82;;
7487;SDS011;3785;52.260;4.728;2022-11-04T21:00:11;1.92;;;1.08;;
7487;SDS011;3785;52.260;4.728;2022-11-04T21:03:33;2.08;;;1.05;;
7487;SDS011;3785;52.260;4.728;2022-11-04T21:06:54;2.88;;;1.20;;
7487;SDS011;3785;52.260;4.728;2022-11-04T21:10:14;2.70;;;0.98;;
7487;SDS011;3785;52.260;4.728;2022-11-04T21:13:35;2.03;;;0.95;;
7487;SDS011;3785;52.260;4.728;2022-11-04T21:16:55;2.65;;;0.90;;
7487;SDS011;3785;52.260;4.728;2022-11-04T21:20:16;2.30;;;0.82;;
7487;SDS011;3785;52.260;4.728;2022-11-04T21:23:37;3.80;;;1.45;;
7487;SDS011;3785;52.260;4.728;2022-11-04T21:26:57;2.75;;;1.17;;
7487;SDS011;3785;52.260;4.728;2022-11-04T21:30:18;3.80;;;1.73;;
7487;SDS011;3785;52.260;4.728;2022-11-04T21:33:39;3.28;;;1.38;;
7487;SDS011;3785;52.260;4.728;2022-11-04T21:36:59;3.05;;;1.30;;
7487;SDS011;3785;52.260;4.728;2022-11-04T21:40:20;3.15;;;1.58;;
7487;SDS011;3785;52.260;4.728;2022-11-04T21:43:40;3.08;;;1.20;;
7487;SDS011;3785;52.260;4.728;2022-11-04T21:47:01;3.08;;;1.48;;
7487;SDS011;3785;52.260;4.728;2022-11-04T21:50:22;4.90;;;1.40;;
7487;SDS011;3785;52.260;4.728;2022-11-04T21:53:42;2.80;;;1.25;;
7487;SDS011;3785;52.260;4.728;2022-11-04T21:57:03;3.33;;;1.60;;
7487;SDS011;3785;52.260;4.728;2022-11-04T22:00:24;1.67;;;1.13;;
7487;SDS011;3785;52.260;4.728;2022-11-04T22:03:48;3.05;;;1.02;;
7487;SDS011;3785;52.260;4.728;2022-11-04T22:07:09;1.05;;;0.70;;
7487;SDS011;3785;52.260;4.728;2022-11-04T22:10:30;2.38;;;0.90;;
7487;SDS011;3785;52.260;4.728;2022-11-04T22:14:00;2.35;;;0.90;;
7487;SDS011;3785;52.260;4.728;2022-11-04T22:17:23;1.92;;;1.08;;
7487;SDS011;3785;52.260;4.728;2022-11-04T22:20:44;3.08;;;1.23;;
7487;SDS011;3785;52.260;4.728;2022-11-04T22:24:05;2.22;;;1.10;;
7487;SDS011;3785;52.260;4.728;2022-11-04T22:27:28;2.78;;;1.42;;
7487;SDS011;3785;52.260;4.728;2022-11-04T22:30:49;5.93;;;1.40;;
7487;SDS011;3785;52.260;4.728;2022-11-04T22:34:10;3.45;;;1.60;;
7487;SDS011;3785;52.260;4.728;2022-11-04T22:37:30;3.38;;;1.60;;
7487;SDS011;3785;52.260;4.728;2022-11-04T22:40:54;3.05;;;1.63;;
7487;SDS011;3785;52.260;4.728;2022-11-04T22:44:16;5.55;;;2.17;;
7487;SDS011;3785;52.260;4.728;2022-11-04T22:47:37;5.18;;;3.20;;
7487;SDS011;3785;52.260;4.728;2022-11-04T22:50:58;4.65;;;1.80;;
7487;SDS011;3785;52.260;4.728;2022-11-04T22:54:19;5.18;;;2.35;;
7487;SDS011;3785;52.260;4.728;2022-11-04T22:57:39;4.07;;;2.33;;